createdAt,value
2023-02-18T00:00:08.822Z,25.02
2023-02-18T00:05:11.678Z,32.78
2023-02-18T00:10:15.832Z,20.92
2023-02-18T00:15:18.277Z,18.65
2023-02-18T00:20:20.711Z,25.33
2023-02-18T00:25:23.079Z,20.00
2023-02-18T00:30:25.603Z,18.48
2023-02-18T00:35:31.024Z,23.92
2023-02-18T00:40:33.440Z,22.98
2023-02-18T00:45:35.862Z,16.77
2023-02-18T00:50:39.433Z,19.23
2023-02-18T00:55:43.590Z,16.95
2023-02-18T01:00:46.265Z,23.45
2023-02-18T01:05:50.401Z,24.40
2023-02-18T01:10:57.997Z,28.77
2023-02-18T01:16:01.887Z,27.33
2023-02-18T01:21:08.948Z,20.95
2023-02-18T01:26:12.778Z,26.60
2023-02-18T01:31:15.596Z,23.92
2023-02-18T01:36:18.450Z,20.98
2023-02-18T01:41:21.219Z,16.65
2023-02-18T01:46:24.166Z,18.00
2023-02-18T01:51:30.284Z,14.68
2023-02-18T01:56:39.028Z,20.85
2023-02-18T02:01:44.436Z,17.50
2023-02-18T02:06:46.927Z,19.35
2023-02-18T02:12:26.129Z,19.02
2023-02-18T02:17:53.165Z,17.60
2023-02-18T02:23:30.942Z,23.98
2023-02-18T02:28:42.300Z,19.15
2023-02-18T02:34:03.380Z,15.40
2023-02-18T02:39:36.977Z,20.27
2023-02-18T02:45:06.828Z,14.75
2023-02-18T02:50:33.575Z,14.90
2023-02-18T02:55:35.937Z,17.55
2023-02-18T03:01:03.384Z,20.50
2023-02-18T03:06:24.125Z,17.27
2023-02-18T03:11:30.827Z,11.15
2023-02-18T03:16:57.122Z,22.08
2023-02-18T03:22:09.016Z,18.63
2023-02-18T03:27:21.818Z,15.38
2023-02-18T03:32:27.565Z,31.33
2023-02-18T03:37:33.137Z,37.40
2023-02-18T03:42:35.799Z,47.95
2023-02-18T03:47:38.476Z,43.95
2023-02-18T03:52:40.879Z,37.03
2023-02-18T03:57:43.485Z,46.83
2023-02-18T04:02:46.670Z,41.08
2023-02-18T04:07:49.092Z,35.85
2023-02-18T04:12:51.580Z,26.58
2023-02-18T04:17:54.081Z,22.08
2023-02-18T04:22:56.596Z,24.13
2023-02-18T04:27:59.351Z,13.02
2023-02-18T04:33:01.735Z,34.03
2023-02-18T04:38:04.417Z,37.63
2023-02-18T04:43:06.802Z,17.30
2023-02-18T04:48:09.290Z,17.42
2023-02-18T04:53:11.728Z,20.52
2023-02-18T04:58:14.162Z,25.33
2023-02-18T05:03:16.676Z,34.25
2023-02-18T05:08:19.420Z,27.23
2023-02-18T05:13:23.161Z,11.45
2023-02-18T05:18:25.543Z,18.75
2023-02-18T05:23:27.928Z,12.50
2023-02-18T05:28:30.423Z,16.23
2023-02-18T05:33:32.912Z,14.40
2023-02-18T05:38:35.370Z,13.43
2023-02-18T05:43:57.851Z,17.85
2023-02-18T05:49:00.370Z,14.77
2023-02-18T05:54:02.762Z,17.83
2023-02-18T05:59:05.133Z,20.17
2023-02-18T06:04:07.961Z,17.40
2023-02-18T06:09:10.713Z,16.73
2023-02-18T06:14:13.140Z,21.10
2023-02-18T06:19:15.537Z,18.23
2023-02-18T06:24:18.054Z,17.23
2023-02-18T06:29:21.754Z,18.52
2023-02-18T06:34:24.322Z,20.42
2023-02-18T06:39:26.705Z,22.02
2023-02-18T06:44:29.067Z,22.95
2023-02-18T06:49:31.492Z,23.55
2023-02-18T06:54:34.726Z,21.92
2023-02-18T06:59:37.177Z,23.20
2023-02-18T07:04:39.604Z,17.55
2023-02-18T07:09:41.995Z,21.52
2023-02-18T07:14:44.578Z,19.33
2023-02-18T07:19:47.023Z,18.35
2023-02-18T07:24:53.129Z,22.90
2023-02-18T07:29:55.736Z,18.63
2023-02-18T07:34:58.187Z,21.15
2023-02-18T07:40:00.616Z,18.88
2023-02-18T07:45:03.101Z,23.27
2023-02-18T07:50:07.481Z,20.02
2023-02-18T07:55:09.839Z,18.33
2023-02-18T08:00:13.020Z,22.00
2023-02-18T08:05:15.627Z,19.55
2023-02-18T08:10:18.089Z,19.15
2023-02-18T08:15:20.522Z,19.95
2023-02-18T08:20:22.999Z,21.60
2023-02-18T08:25:29.643Z,19.40
2023-02-18T08:30:32.658Z,19.83
2023-02-18T08:35:35.146Z,24.60
2023-02-18T08:40:37.724Z,21.17
2023-02-18T08:45:40.497Z,18.52
2023-02-18T08:50:43.051Z,22.70
2023-02-18T08:55:45.614Z,19.80
2023-02-18T09:00:48.115Z,19.25
2023-02-18T09:05:50.618Z,22.33
2023-02-18T09:11:01.721Z,18.50
2023-02-18T09:16:19.088Z,19.23
2023-02-18T09:26:26.586Z,16.35
2023-02-18T09:31:29.885Z,15.52
2023-02-18T09:36:33.207Z,17.45
2023-02-18T09:42:01.225Z,15.95
2023-02-18T09:47:30.652Z,16.80
2023-02-18T09:52:37.709Z,15.95
2023-02-18T09:57:44.376Z,16.73
2023-02-18T10:02:57.648Z,15.80
2023-02-18T10:08:15.332Z,18.20
2023-02-18T10:13:25.062Z,16.95
2023-02-18T10:18:34.160Z,17.15
2023-02-18T10:23:44.198Z,20.10
2023-02-18T10:28:47.468Z,19.65
2023-02-18T10:34:01.215Z,18.73
2023-02-18T10:39:24.652Z,20.65
2023-02-18T10:44:45.278Z,20.60
2023-02-18T10:50:01.520Z,22.23
2023-02-18T10:55:07.559Z,24.48
2023-02-18T11:00:12.885Z,20.02
2023-02-18T11:05:26.048Z,19.52
2023-02-18T11:10:34.623Z,17.08
2023-02-18T11:15:37.472Z,16.25
2023-02-18T11:20:40.976Z,15.25
2023-02-18T11:26:02.113Z,12.65
2023-02-18T11:31:05.581Z,14.57
2023-02-18T11:36:20.454Z,14.00
2023-02-18T11:41:37.166Z,17.52
2023-02-18T11:46:57.809Z,12.15
2023-02-18T11:52:20.045Z,16.20
2023-02-18T11:57:26.602Z,17.40
2023-02-18T12:02:40.254Z,17.58
2023-02-18T12:08:05.474Z,13.57
2023-02-18T12:13:29.141Z,11.60
2023-02-18T12:19:16.141Z,12.25
2023-02-18T12:25:02.998Z,26.63
2023-02-18T12:30:24.447Z,12.07
2023-02-18T12:36:04.636Z,14.57
2023-02-18T12:41:49.389Z,11.52
2023-02-18T12:47:26.149Z,12.98
2023-02-18T12:52:42.546Z,9.73
2023-02-18T12:58:06.929Z,10.32
2023-02-18T13:03:27.525Z,10.13
2023-02-18T13:08:59.666Z,10.43
2023-02-18T13:14:14.119Z,4.57
2023-02-18T13:19:27.458Z,11.25
2023-02-18T13:24:32.965Z,11.85
2023-02-18T13:29:45.294Z,9.30
2023-02-18T13:39:56.717Z,12.02
2023-02-18T13:44:59.180Z,9.82
2023-02-18T13:50:25.979Z,13.50
2023-02-18T13:55:40.578Z,6.88
2023-02-18T14:00:50.185Z,11.23
2023-02-18T14:05:57.232Z,17.80
2023-02-18T14:11:14.756Z,10.77
2023-02-18T14:16:17.241Z,10.60
2023-02-18T14:21:22.908Z,12.18
2023-02-18T14:26:33.930Z,11.93
2023-02-18T14:31:49.229Z,13.07
2023-02-18T14:37:10.176Z,11.90
2023-02-18T14:42:30.114Z,13.15
2023-02-18T14:48:00.561Z,10.40
2023-02-18T14:53:13.566Z,9.88
2023-02-18T14:58:21.795Z,12.38
2023-02-18T15:03:28.765Z,7.00
2023-02-18T15:08:39.251Z,7.72
2023-02-18T15:13:44.590Z,16.67
2023-02-18T15:18:54.870Z,16.60
2023-02-18T15:24:10.869Z,13.75
2023-02-18T15:29:20.356Z,11.30
2023-02-18T15:34:36.956Z,13.80
2023-02-18T15:39:40.319Z,14.30
2023-02-18T15:44:51.803Z,17.42
2023-02-18T15:49:57.545Z,10.65
2023-02-18T15:55:08.362Z,10.85
2023-02-18T16:00:20.728Z,12.40
2023-02-18T16:05:29.959Z,8.15
2023-02-18T16:10:36.539Z,11.27
2023-02-18T16:15:41.242Z,11.80
2023-02-18T16:20:55.466Z,9.20
2023-02-18T16:26:21.335Z,10.02
2023-02-18T16:31:24.024Z,11.15
2023-02-18T16:36:26.766Z,11.02
2023-02-18T16:41:29.514Z,8.40
2023-02-18T16:46:32.017Z,16.75
2023-02-18T16:51:35.891Z,9.05
2023-02-18T16:56:38.737Z,8.07
2023-02-18T17:01:45.246Z,10.98
2023-02-18T17:06:48.795Z,9.52
2023-02-18T17:11:53.989Z,11.73
2023-02-18T17:16:57.779Z,12.55
2023-02-18T17:22:00.253Z,12.15
2023-02-18T17:27:02.661Z,7.38
2023-02-18T17:32:08.406Z,10.13
2023-02-18T17:37:13.425Z,7.47
2023-02-18T17:42:16.128Z,11.13
2023-02-18T17:47:18.677Z,14.52
2023-02-18T17:52:30.946Z,5.50
2023-02-18T17:57:33.362Z,8.23
2023-02-18T18:02:35.800Z,8.77
2023-02-18T18:07:38.349Z,8.68
2023-02-18T18:12:41.006Z,9.77
2023-02-18T18:17:43.407Z,6.93
2023-02-18T18:22:46.046Z,8.63
2023-02-18T18:27:50.794Z,7.95
2023-02-18T18:32:54.052Z,11.60
2023-02-18T18:37:56.953Z,9.35
2023-02-18T18:43:01.513Z,9.98
2023-02-18T18:48:05.863Z,6.75
2023-02-18T18:53:19.101Z,9.57
2023-02-18T18:58:24.502Z,12.48
2023-02-18T19:03:29.005Z,11.63
2023-02-18T19:08:32.632Z,6.53
2023-02-18T19:13:36.474Z,9.73
2023-02-18T19:18:39.190Z,11.45
2023-02-18T19:23:41.738Z,4.30
2023-02-18T19:28:45.660Z,7.97
2023-02-18T19:33:48.067Z,7.78
2023-02-18T19:38:51.715Z,8.70
2023-02-18T19:43:54.636Z,8.70
2023-02-18T19:48:57.068Z,7.75
2023-02-18T19:53:59.580Z,6.57
2023-02-18T19:59:02.052Z,6.55
2023-02-18T20:04:04.521Z,7.40
2023-02-18T20:09:07.383Z,7.78
2023-02-18T20:14:09.862Z,7.22
2023-02-18T20:19:12.360Z,9.00
2023-02-18T20:24:14.875Z,8.60
2023-02-18T20:29:19.840Z,10.20
2023-02-18T20:34:22.772Z,8.98
2023-02-18T20:39:25.350Z,8.35
2023-02-18T20:44:28.703Z,7.15
2023-02-18T20:49:31.198Z,5.90
2023-02-18T20:54:33.730Z,5.07
2023-02-18T20:59:36.318Z,10.75
2023-02-18T21:04:38.703Z,4.53
2023-02-18T21:09:41.225Z,5.55
2023-02-18T21:14:43.814Z,12.05
2023-02-18T21:19:46.186Z,10.82
2023-02-18T21:24:51.953Z,7.35
2023-02-18T21:29:54.472Z,7.47
2023-02-18T21:34:56.908Z,5.82
2023-02-18T21:40:00.575Z,5.85
2023-02-18T21:45:03.407Z,11.15
2023-02-18T21:50:06.239Z,9.65
2023-02-18T21:55:09.556Z,11.13
2023-02-18T22:00:20.132Z,8.25
2023-02-18T22:12:29.319Z,8.57
2023-02-18T22:17:32.442Z,4.88
2023-02-18T22:22:34.951Z,9.52
2023-02-18T22:27:37.403Z,8.60
2023-02-18T22:32:39.829Z,4.97
2023-02-18T22:37:42.386Z,5.88
2023-02-18T22:42:44.759Z,5.43
2023-02-18T22:47:47.193Z,6.97
2023-02-18T22:52:49.649Z,9.80
2023-02-18T22:57:52.066Z,8.38
2023-02-18T23:02:54.538Z,8.23
2023-02-18T23:07:57.027Z,7.43
2023-02-18T23:12:59.533Z,4.80
2023-02-18T23:18:02.060Z,6.85
2023-02-18T23:23:04.696Z,8.85
2023-02-18T23:28:07.060Z,8.73
2023-02-18T23:33:11.263Z,7.45
2023-02-18T23:38:13.660Z,6.75
2023-02-18T23:43:16.041Z,8.48
2023-02-18T23:48:18.579Z,6.35
2023-02-18T23:53:21.077Z,7.85
2023-02-18T23:58:23.516Z,3.60
